sensor_id;sensor_type;location;lat;lon;timestamp;P1;durP1;ratioP1;P2;durP2;ratioP2
12762;SDS011;6445;52.490;13.378;2023-08-06T00:00:42;11.90;;;10.65;;
12762;SDS011;6445;52.490;13.378;2023-08-06T00:03:07;13.75;;;10.93;;
12762;SDS011;6445;52.490;13.378;2023-08-06T00:05:32;12.20;;;10.68;;
12762;SDS011;6445;52.490;13.378;2023-08-06T00:07:57;13.85;;;10.43;;
12762;SDS011;6445;52.490;13.378;2023-08-06T00:10:23;12.18;;;10.93;;
12762;SDS011;6445;52.490;13.378;2023-08-06T00:12:48;13.32;;;10.30;;
12762;SDS011;6445;52.490;13.378;2023-08-06T00:15:13;10.85;;;9.75;;
12762;SDS011;6445;52.490;13.378;2023-08-06T00:17:39;12.73;;;9.65;;
12762;SDS011;6445;52.490;13.378;2023-08-06T00:20:04;11.30;;;10.20;;
12762;SDS011;6445;52.490;13.378;2023-08-06T00:22:32;11.57;;;10.18;;
12762;SDS011;6445;52.490;13.378;2023-08-06T00:24:58;10.60;;;9.50;;
12762;SDS011;6445;52.490;13.378;2023-08-06T00:27:23;11.00;;;9.90;;
12762;SDS011;6445;52.490;13.378;2023-08-06T00:29:48;10.45;;;9.45;;
12762;SDS011;6445;52.490;13.378;2023-08-06T00:32:13;10.57;;;9.48;;
12762;SDS011;6445;52.490;13.378;2023-08-06T00:34:39;11.32;;;9.00;;
12762;SDS011;6445;52.490;13.378;2023-08-06T00:37:04;10.23;;;8.98;;
12762;SDS011;6445;52.490;13.378;2023-08-06T00:39:29;11.88;;;9.52;;
12762;SDS011;6445;52.490;13.378;2023-08-06T00:41:55;10.23;;;9.02;;
12762;SDS011;6445;52.490;13.378;2023-08-06T00:44:20;13.50;;;10.35;;
12762;SDS011;6445;52.490;13.378;2023-08-06T00:46:45;13.73;;;9.60;;
12762;SDS011;6445;52.490;13.378;2023-08-06T00:49:10;11.32;;;9.90;;
12762;SDS011;6445;52.490;13.378;2023-08-06T00:51:36;10.00;;;9.05;;
12762;SDS011;6445;52.490;13.378;2023-08-06T00:54:01;9.93;;;9.07;;
12762;SDS011;6445;52.490;13.378;2023-08-06T00:56:27;10.10;;;9.05;;
12762;SDS011;6445;52.490;13.378;2023-08-06T00:58:52;10.90;;;9.80;;
12762;SDS011;6445;52.490;13.378;2023-08-06T01:01:19;10.98;;;9.43;;
12762;SDS011;6445;52.490;13.378;2023-08-06T01:03:44;10.75;;;9.63;;
12762;SDS011;6445;52.490;13.378;2023-08-06T01:06:09;10.77;;;9.68;;
12762;SDS011;6445;52.490;13.378;2023-08-06T01:08:42;10.60;;;9.48;;
12762;SDS011;6445;52.490;13.378;2023-08-06T01:11:24;10.55;;;9.40;;
12762;SDS011;6445;52.490;13.378;2023-08-06T01:14:02;9.77;;;8.77;;
12762;SDS011;6445;52.490;13.378;2023-08-06T01:16:31;9.90;;;8.95;;
12762;SDS011;6445;52.490;13.378;2023-08-06T01:18:58;10.05;;;9.05;;
12762;SDS011;6445;52.490;13.378;2023-08-06T01:21:23;10.50;;;9.48;;
12762;SDS011;6445;52.490;13.378;2023-08-06T01:23:49;10.00;;;8.77;;
12762;SDS011;6445;52.490;13.378;2023-08-06T01:28:44;10.70;;;9.70;;
12762;SDS011;6445;52.490;13.378;2023-08-06T01:31:21;10.40;;;9.32;;
12762;SDS011;6445;52.490;13.378;2023-08-06T01:33:49;10.60;;;9.30;;
12762;SDS011;6445;52.490;13.378;2023-08-06T01:36:16;12.27;;;9.07;;
12762;SDS011;6445;52.490;13.378;2023-08-06T01:38:43;9.88;;;8.88;;
12762;SDS011;6445;52.490;13.378;2023-08-06T01:41:08;11.55;;;9.70;;
12762;SDS011;6445;52.490;13.378;2023-08-06T01:43:33;11.40;;;9.15;;
12762;SDS011;6445;52.490;13.378;2023-08-06T01:45:58;10.25;;;9.27;;
12762;SDS011;6445;52.490;13.378;2023-08-06T01:48:24;14.07;;;9.98;;
12762;SDS011;6445;52.490;13.378;2023-08-06T01:50:49;10.15;;;9.15;;
12762;SDS011;6445;52.490;13.378;2023-08-06T01:53:15;10.25;;;9.15;;
12762;SDS011;6445;52.490;13.378;2023-08-06T01:55:40;10.80;;;9.70;;
12762;SDS011;6445;52.490;13.378;2023-08-06T01:58:05;10.27;;;9.27;;
12762;SDS011;6445;52.490;13.378;2023-08-06T02:00:31;13.50;;;9.77;;
12762;SDS011;6445;52.490;13.378;2023-08-06T02:02:56;10.82;;;9.45;;
12762;SDS011;6445;52.490;13.378;2023-08-06T02:05:21;10.93;;;9.82;;
12762;SDS011;6445;52.490;13.378;2023-08-06T02:07:46;11.43;;;10.23;;
12762;SDS011;6445;52.490;13.378;2023-08-06T02:10:12;11.85;;;10.75;;
12762;SDS011;6445;52.490;13.378;2023-08-06T02:12:37;10.65;;;9.65;;
12762;SDS011;6445;52.490;13.378;2023-08-06T02:15:02;11.43;;;9.75;;
12762;SDS011;6445;52.490;13.378;2023-08-06T02:17:28;12.18;;;10.27;;
12762;SDS011;6445;52.490;13.378;2023-08-06T02:19:53;11.57;;;10.38;;
12762;SDS011;6445;52.490;13.378;2023-08-06T02:22:19;11.43;;;10.32;;
12762;SDS011;6445;52.490;13.378;2023-08-06T02:24:44;12.07;;;10.63;;
12762;SDS011;6445;52.490;13.378;2023-08-06T02:27:09;11.77;;;10.57;;
12762;SDS011;6445;52.490;13.378;2023-08-06T02:29:34;12.57;;;11.30;;
12762;SDS011;6445;52.490;13.378;2023-08-06T02:32:00;12.55;;;11.00;;
12762;SDS011;6445;52.490;13.378;2023-08-06T02:34:27;12.63;;;11.32;;
12762;SDS011;6445;52.490;13.378;2023-08-06T02:36:52;12.55;;;11.05;;
12762;SDS011;6445;52.490;13.378;2023-08-06T02:39:17;14.80;;;11.88;;
12762;SDS011;6445;52.490;13.378;2023-08-06T02:41:43;12.40;;;11.20;;
12762;SDS011;6445;52.490;13.378;2023-08-06T02:44:09;12.65;;;11.38;;
12762;SDS011;6445;52.490;13.378;2023-08-06T02:46:34;12.40;;;11.10;;
12762;SDS011;6445;52.490;13.378;2023-08-06T02:48:59;12.10;;;10.80;;
12762;SDS011;6445;52.490;13.378;2023-08-06T02:51:24;13.88;;;10.73;;
12762;SDS011;6445;52.490;13.378;2023-08-06T02:53:50;11.95;;;10.75;;
12762;SDS011;6445;52.490;13.378;2023-08-06T02:56:15;11.65;;;10.50;;
12762;SDS011;6445;52.490;13.378;2023-08-06T02:58:40;11.65;;;10.48;;
12762;SDS011;6445;52.490;13.378;2023-08-06T03:01:06;12.32;;;11.13;;
12762;SDS011;6445;52.490;13.378;2023-08-06T03:03:32;11.20;;;10.05;;
12762;SDS011;6445;52.490;13.378;2023-08-06T03:05:58;12.18;;;10.23;;
12762;SDS011;6445;52.490;13.378;2023-08-06T03:08:23;11.77;;;10.55;;
12762;SDS011;6445;52.490;13.378;2023-08-06T03:10:49;10.45;;;9.45;;
12762;SDS011;6445;52.490;13.378;2023-08-06T03:13:15;10.65;;;9.55;;
12762;SDS011;6445;52.490;13.378;2023-08-06T03:15:41;11.32;;;9.65;;
12762;SDS011;6445;52.490;13.378;2023-08-06T03:18:06;13.63;;;9.57;;
12762;SDS011;6445;52.490;13.378;2023-08-06T03:20:32;10.75;;;9.63;;
12762;SDS011;6445;52.490;13.378;2023-08-06T03:22:57;12.50;;;9.75;;
12762;SDS011;6445;52.490;13.378;2023-08-06T03:25:22;10.60;;;9.65;;
12762;SDS011;6445;52.490;13.378;2023-08-06T03:27:48;11.43;;;10.20;;
12762;SDS011;6445;52.490;13.378;2023-08-06T03:30:13;12.75;;;10.07;;
12762;SDS011;6445;52.490;13.378;2023-08-06T03:32:38;12.18;;;9.80;;
12762;SDS011;6445;52.490;13.378;2023-08-06T03:35:04;13.30;;;10.25;;
12762;SDS011;6445;52.490;13.378;2023-08-06T03:37:29;10.63;;;9.52;;
12762;SDS011;6445;52.490;13.378;2023-08-06T03:39:54;10.80;;;9.70;;
12762;SDS011;6445;52.490;13.378;2023-08-06T03:42:20;10.32;;;9.25;;
12762;SDS011;6445;52.490;13.378;2023-08-06T03:44:45;10.73;;;9.63;;
12762;SDS011;6445;52.490;13.378;2023-08-06T03:47:10;10.52;;;9.52;;
12762;SDS011;6445;52.490;13.378;2023-08-06T03:49:35;10.20;;;9.10;;
12762;SDS011;6445;52.490;13.378;2023-08-06T03:52:01;10.98;;;9.13;;
12762;SDS011;6445;52.490;13.378;2023-08-06T03:54:26;11.65;;;9.50;;
12762;SDS011;6445;52.490;13.378;2023-08-06T03:56:51;11.13;;;9.93;;
12762;SDS011;6445;52.490;13.378;2023-08-06T03:59:16;11.13;;;9.38;;
12762;SDS011;6445;52.490;13.378;2023-08-06T04:01:42;10.32;;;9.27;;
12762;SDS011;6445;52.490;13.378;2023-08-06T04:04:07;11.23;;;10.02;;
12762;SDS011;6445;52.490;13.378;2023-08-06T04:06:32;10.70;;;9.02;;
12762;SDS011;6445;52.490;13.378;2023-08-06T04:08:57;12.68;;;9.50;;
12762;SDS011;6445;52.490;13.378;2023-08-06T04:11:23;9.70;;;8.63;;
12762;SDS011;6445;52.490;13.378;2023-08-06T04:13:48;12.27;;;9.50;;
12762;SDS011;6445;52.490;13.378;2023-08-06T04:16:13;10.43;;;9.38;;
12762;SDS011;6445;52.490;13.378;2023-08-06T04:18:39;10.00;;;8.77;;
12762;SDS011;6445;52.490;13.378;2023-08-06T04:21:05;9.80;;;8.80;;
12762;SDS011;6445;52.490;13.378;2023-08-06T04:23:30;9.65;;;8.65;;
12762;SDS011;6445;52.490;13.378;2023-08-06T04:25:56;10.93;;;9.10;;
12762;SDS011;6445;52.490;13.378;2023-08-06T04:28:22;9.68;;;8.68;;
12762;SDS011;6445;52.490;13.378;2023-08-06T04:30:47;8.80;;;7.97;;
12762;SDS011;6445;52.490;13.378;2023-08-06T04:33:12;9.25;;;8.15;;
12762;SDS011;6445;52.490;13.378;2023-08-06T04:35:38;10.18;;;8.80;;
12762;SDS011;6445;52.490;13.378;2023-08-06T04:38:03;9.73;;;8.77;;
12762;SDS011;6445;52.490;13.378;2023-08-06T04:40:28;9.57;;;8.63;;
12762;SDS011;6445;52.490;13.378;2023-08-06T04:42:53;9.68;;;8.23;;
12762;SDS011;6445;52.490;13.378;2023-08-06T04:45:19;10.13;;;8.63;;
12762;SDS011;6445;52.490;13.378;2023-08-06T04:47:44;10.15;;;9.05;;
12762;SDS011;6445;52.490;13.378;2023-08-06T04:50:09;10.55;;;9.02;;
12762;SDS011;6445;52.490;13.378;2023-08-06T04:52:34;9.25;;;8.35;;
12762;SDS011;6445;52.490;13.378;2023-08-06T04:55:00;9.43;;;8.43;;
12762;SDS011;6445;52.490;13.378;2023-08-06T04:57:25;9.35;;;8.05;;
12762;SDS011;6445;52.490;13.378;2023-08-06T04:59:50;9.20;;;8.25;;
12762;SDS011;6445;52.490;13.378;2023-08-06T05:02:15;8.80;;;7.90;;
12762;SDS011;6445;52.490;13.378;2023-08-06T05:04:41;10.35;;;8.25;;
12762;SDS011;6445;52.490;13.378;2023-08-06T05:07:06;9.35;;;8.45;;
12762;SDS011;6445;52.490;13.378;2023-08-06T05:09:31;9.30;;;8.30;;
12762;SDS011;6445;52.490;13.378;2023-08-06T05:11:56;10.32;;;8.20;;
12762;SDS011;6445;52.490;13.378;2023-08-06T05:14:22;8.85;;;7.72;;
12762;SDS011;6445;52.490;13.378;2023-08-06T05:16:47;8.60;;;7.80;;
12762;SDS011;6445;52.490;13.378;2023-08-06T05:19:12;9.30;;;8.35;;
12762;SDS011;6445;52.490;13.378;2023-08-06T05:21:37;9.68;;;8.32;;
12762;SDS011;6445;52.490;13.378;2023-08-06T05:24:03;9.15;;;7.90;;
12762;SDS011;6445;52.490;13.378;2023-08-06T05:26:28;9.45;;;8.55;;
12762;SDS011;6445;52.490;13.378;2023-08-06T05:28:53;9.05;;;8.15;;
12762;SDS011;6445;52.490;13.378;2023-08-06T05:31:19;8.65;;;7.75;;
12762;SDS011;6445;52.490;13.378;2023-08-06T05:33:44;8.43;;;7.63;;
12762;SDS011;6445;52.490;13.378;2023-08-06T05:36:09;9.88;;;8.15;;
12762;SDS011;6445;52.490;13.378;2023-08-06T05:38:34;8.48;;;7.43;;
12762;SDS011;6445;52.490;13.378;2023-08-06T05:41:00;8.98;;;7.45;;
12762;SDS011;6445;52.490;13.378;2023-08-06T05:43:25;9.27;;;8.38;;
12762;SDS011;6445;52.490;13.378;2023-08-06T05:45:50;8.60;;;7.78;;
12762;SDS011;6445;52.490;13.378;2023-08-06T05:48:16;9.50;;;7.80;;
12762;SDS011;6445;52.490;13.378;2023-08-06T05:50:41;8.55;;;7.70;;
12762;SDS011;6445;52.490;13.378;2023-08-06T05:53:07;9.07;;;7.57;;
12762;SDS011;6445;52.490;13.378;2023-08-06T05:55:32;9.52;;;7.35;;
12762;SDS011;6445;52.490;13.378;2023-08-06T05:57:58;8.45;;;7.55;;
12762;SDS011;6445;52.490;13.378;2023-08-06T06:00:23;9.40;;;8.50;;
12762;SDS011;6445;52.490;13.378;2023-08-06T06:02:48;9.02;;;8.13;;
12762;SDS011;6445;52.490;13.378;2023-08-06T06:05:14;11.27;;;8.40;;
12762;SDS011;6445;52.490;13.378;2023-08-06T06:07:39;8.73;;;7.65;;
12762;SDS011;6445;52.490;13.378;2023-08-06T06:10:04;8.85;;;7.95;;
12762;SDS011;6445;52.490;13.378;2023-08-06T06:12:30;9.23;;;8.32;;
12762;SDS011;6445;52.490;13.378;2023-08-06T06:14:55;8.65;;;7.85;;
12762;SDS011;6445;52.490;13.378;2023-08-06T06:17:21;8.55;;;7.68;;
12762;SDS011;6445;52.490;13.378;2023-08-06T06:19:46;9.27;;;8.30;;
12762;SDS011;6445;52.490;13.378;2023-08-06T06:22:12;10.27;;;8.30;;
12762;SDS011;6445;52.490;13.378;2023-08-06T06:24:37;8.63;;;7.72;;
12762;SDS011;6445;52.490;13.378;2023-08-06T06:27:02;8.25;;;7.45;;
12762;SDS011;6445;52.490;13.378;2023-08-06T06:29:28;8.90;;;8.00;;
12762;SDS011;6445;52.490;13.378;2023-08-06T06:31:53;8.70;;;7.55;;
12762;SDS011;6445;52.490;13.378;2023-08-06T06:34:18;8.70;;;7.82;;
12762;SDS011;6445;52.490;13.378;2023-08-06T06:36:44;8.50;;;7.60;;
12762;SDS011;6445;52.490;13.378;2023-08-06T06:39:09;9.10;;;8.18;;
12762;SDS011;6445;52.490;13.378;2023-08-06T06:41:34;8.38;;;7.55;;
12762;SDS011;6445;52.490;13.378;2023-08-06T06:44:00;9.50;;;8.40;;
12762;SDS011;6445;52.490;13.378;2023-08-06T06:46:26;9.27;;;8.25;;
12762;SDS011;6445;52.490;13.378;2023-08-06T06:48:51;8.85;;;8.00;;
12762;SDS011;6445;52.490;13.378;2023-08-06T06:51:16;9.52;;;8.48;;
12762;SDS011;6445;52.490;13.378;2023-08-06T06:53:41;9.48;;;7.63;;
12762;SDS011;6445;52.490;13.378;2023-08-06T06:56:07;9.88;;;8.20;;
12762;SDS011;6445;52.490;13.378;2023-08-06T06:58:32;7.68;;;6.97;;
12762;SDS011;6445;52.490;13.378;2023-08-06T07:00:57;8.60;;;7.70;;
12762;SDS011;6445;52.490;13.378;2023-08-06T07:03:23;9.23;;;8.32;;
12762;SDS011;6445;52.490;13.378;2023-08-06T07:05:48;8.80;;;7.90;;
12762;SDS011;6445;52.490;13.378;2023-08-06T07:08:14;10.27;;;8.65;;
12762;SDS011;6445;52.490;13.378;2023-08-06T07:10:40;8.95;;;8.15;;
12762;SDS011;6445;52.490;13.378;2023-08-06T07:13:06;9.35;;;8.25;;
12762;SDS011;6445;52.490;13.378;2023-08-06T07:15:31;8.85;;;7.95;;
12762;SDS011;6445;52.490;13.378;2023-08-06T07:17:56;9.30;;;8.32;;
12762;SDS011;6445;52.490;13.378;2023-08-06T07:20:21;8.77;;;7.97;;
12762;SDS011;6445;52.490;13.378;2023-08-06T07:22:47;9.70;;;8.55;;
12762;SDS011;6445;52.490;13.378;2023-08-06T07:25:12;9.38;;;7.93;;
12762;SDS011;6445;52.490;13.378;2023-08-06T07:27:37;8.80;;;8.00;;
12762;SDS011;6445;52.490;13.378;2023-08-06T07:30:03;8.80;;;7.88;;
12762;SDS011;6445;52.490;13.378;2023-08-06T07:32:30;8.85;;;7.82;;
12762;SDS011;6445;52.490;13.378;2023-08-06T07:34:55;9.95;;;7.97;;
12762;SDS011;6445;52.490;13.378;2023-08-06T07:37:24;9.20;;;8.20;;
12762;SDS011;6445;52.490;13.378;2023-08-06T07:39:49;9.75;;;8.35;;
12762;SDS011;6445;52.490;13.378;2023-08-06T07:42:14;9.45;;;8.45;;
12762;SDS011;6445;52.490;13.378;2023-08-06T07:44:40;8.82;;;7.93;;
12762;SDS011;6445;52.490;13.378;2023-08-06T07:47:05;8.63;;;7.82;;
12762;SDS011;6445;52.490;13.378;2023-08-06T07:49:30;8.85;;;7.88;;
12762;SDS011;6445;52.490;13.378;2023-08-06T07:51:55;9.73;;;8.10;;
12762;SDS011;6445;52.490;13.378;2023-08-06T07:54:21;8.25;;;7.47;;
12762;SDS011;6445;52.490;13.378;2023-08-06T07:56:47;9.85;;;8.18;;
12762;SDS011;6445;52.490;13.378;2023-08-06T07:59:12;10.45;;;8.48;;
12762;SDS011;6445;52.490;13.378;2023-08-06T08:01:37;9.57;;;8.65;;
12762;SDS011;6445;52.490;13.378;2023-08-06T08:04:03;9.52;;;8.63;;
12762;SDS011;6445;52.490;13.378;2023-08-06T08:06:29;9.75;;;8.63;;
12762;SDS011;6445;52.490;13.378;2023-08-06T08:08:54;9.85;;;8.77;;
12762;SDS011;6445;52.490;13.378;2023-08-06T08:11:20;9.73;;;8.68;;
12762;SDS011;6445;52.490;13.378;2023-08-06T08:13:45;11.32;;;9.05;;
12762;SDS011;6445;52.490;13.378;2023-08-06T08:16:10;10.48;;;9.32;;
12762;SDS011;6445;52.490;13.378;2023-08-06T08:18:36;10.23;;;9.23;;
12762;SDS011;6445;52.490;13.378;2023-08-06T08:21:01;11.57;;;9.05;;
12762;SDS011;6445;52.490;13.378;2023-08-06T08:23:26;10.77;;;9.57;;
12762;SDS011;6445;52.490;13.378;2023-08-06T08:25:52;10.85;;;9.75;;
12762;SDS011;6445;52.490;13.378;2023-08-06T08:28:17;9.85;;;8.93;;
12762;SDS011;6445;52.490;13.378;2023-08-06T08:30:42;11.63;;;10.18;;
12762;SDS011;6445;52.490;13.378;2023-08-06T08:33:07;11.40;;;10.20;;
12762;SDS011;6445;52.490;13.378;2023-08-06T08:35:33;11.93;;;9.80;;
12762;SDS011;6445;52.490;13.378;2023-08-06T08:37:58;11.32;;;9.45;;
12762;SDS011;6445;52.490;13.378;2023-08-06T08:40:24;10.43;;;9.38;;
12762;SDS011;6445;52.490;13.378;2023-08-06T08:42:55;11.45;;;10.18;;
12762;SDS011;6445;52.490;13.378;2023-08-06T08:45:21;10.18;;;9.27;;
12762;SDS011;6445;52.490;13.378;2023-08-06T08:47:48;12.35;;;11.10;;
12762;SDS011;6445;52.490;13.378;2023-08-06T08:50:14;14.30;;;12.60;;
12762;SDS011;6445;52.490;13.378;2023-08-06T08:52:40;13.63;;;12.20;;
12762;SDS011;6445;52.490;13.378;2023-08-06T08:55:06;12.50;;;11.15;;
12762;SDS011;6445;52.490;13.378;2023-08-06T08:57:33;13.30;;;11.95;;
12762;SDS011;6445;52.490;13.378;2023-08-06T08:59:58;13.23;;;11.85;;
12762;SDS011;6445;52.490;13.378;2023-08-06T09:02:23;13.20;;;11.68;;
12762;SDS011;6445;52.490;13.378;2023-08-06T09:04:52;13.50;;;12.10;;
12762;SDS011;6445;52.490;13.378;2023-08-06T09:07:19;14.60;;;13.15;;
12762;SDS011;6445;52.490;13.378;2023-08-06T09:09:47;13.07;;;11.77;;
12762;SDS011;6445;52.490;13.378;2023-08-06T09:12:14;14.65;;;13.13;;
12762;SDS011;6445;52.490;13.378;2023-08-06T09:14:41;14.10;;;12.65;;
12762;SDS011;6445;52.490;13.378;2023-08-06T09:17:07;14.90;;;13.40;;
12762;SDS011;6445;52.490;13.378;2023-08-06T09:19:33;14.15;;;12.65;;
12762;SDS011;6445;52.490;13.378;2023-08-06T09:21:59;13.95;;;12.52;;
12762;SDS011;6445;52.490;13.378;2023-08-06T09:24:24;14.82;;;13.23;;
12762;SDS011;6445;52.490;13.378;2023-08-06T09:26:51;14.07;;;12.68;;
12762;SDS011;6445;52.490;13.378;2023-08-06T09:29:17;13.50;;;12.20;;
12762;SDS011;6445;52.490;13.378;2023-08-06T09:31:43;13.77;;;12.38;;
12762;SDS011;6445;52.490;13.378;2023-08-06T09:34:15;14.07;;;12.55;;
12762;SDS011;6445;52.490;13.378;2023-08-06T09:36:42;13.20;;;11.88;;
12762;SDS011;6445;52.490;13.378;2023-08-06T09:39:17;13.20;;;11.80;;
12762;SDS011;6445;52.490;13.378;2023-08-06T09:41:43;12.90;;;11.63;;
12762;SDS011;6445;52.490;13.378;2023-08-06T09:46:42;13.95;;;12.55;;
12762;SDS011;6445;52.490;13.378;2023-08-06T09:49:07;14.25;;;12.70;;
12762;SDS011;6445;52.490;13.378;2023-08-06T09:51:34;14.05;;;12.65;;
12762;SDS011;6445;52.490;13.378;2023-08-06T09:54:00;16.10;;;12.77;;
12762;SDS011;6445;52.490;13.378;2023-08-06T09:56:26;14.50;;;13.00;;
12762;SDS011;6445;52.490;13.378;2023-08-06T09:58:51;15.38;;;13.77;;
12762;SDS011;6445;52.490;13.378;2023-08-06T10:01:18;13.63;;;12.05;;
12762;SDS011;6445;52.490;13.378;2023-08-06T10:03:44;15.27;;;13.02;;
12762;SDS011;6445;52.490;13.378;2023-08-06T10:06:10;15.93;;;12.73;;
12762;SDS011;6445;52.490;13.378;2023-08-06T10:08:35;15.70;;;13.50;;
12762;SDS011;6445;52.490;13.378;2023-08-06T10:11:01;14.02;;;12.63;;
12762;SDS011;6445;52.490;13.378;2023-08-06T10:13:29;15.25;;;12.55;;
12762;SDS011;6445;52.490;13.378;2023-08-06T10:15:55;14.30;;;12.82;;
12762;SDS011;6445;52.490;13.378;2023-08-06T10:18:20;14.25;;;12.75;;
12762;SDS011;6445;52.490;13.378;2023-08-06T10:20:47;14.43;;;12.63;;
12762;SDS011;6445;52.490;13.378;2023-08-06T10:23:12;15.95;;;14.18;;
12762;SDS011;6445;52.490;13.378;2023-08-06T10:25:42;14.82;;;13.32;;
12762;SDS011;6445;52.490;13.378;2023-08-06T10:28:08;14.20;;;12.82;;
12762;SDS011;6445;52.490;13.378;2023-08-06T10:30:40;15.45;;;13.95;;
12762;SDS011;6445;52.490;13.378;2023-08-06T10:33:06;15.63;;;14.02;;
12762;SDS011;6445;52.490;13.378;2023-08-06T10:35:42;15.38;;;13.88;;
12762;SDS011;6445;52.490;13.378;2023-08-06T10:38:09;15.40;;;13.77;;
12762;SDS011;6445;52.490;13.378;2023-08-06T10:40:40;15.70;;;14.10;;
12762;SDS011;6445;52.490;13.378;2023-08-06T10:43:06;16.00;;;14.48;;
12762;SDS011;6445;52.490;13.378;2023-08-06T10:45:34;14.40;;;12.98;;
12762;SDS011;6445;52.490;13.378;2023-08-06T10:48:00;15.13;;;13.63;;
12762;SDS011;6445;52.490;13.378;2023-08-06T10:50:25;15.48;;;13.80;;
12762;SDS011;6445;52.490;13.378;2023-08-06T10:52:51;16.10;;;14.38;;
12762;SDS011;6445;52.490;13.378;2023-08-06T10:55:27;16.23;;;14.52;;
12762;SDS011;6445;52.490;13.378;2023-08-06T10:57:54;14.63;;;13.13;;
12762;SDS011;6445;52.490;13.378;2023-08-06T11:00:20;16.77;;;14.15;;
12762;SDS011;6445;52.490;13.378;2023-08-06T11:02:47;13.32;;;12.05;;
12762;SDS011;6445;52.490;13.378;2023-08-06T11:05:14;11.18;;;9.93;;
12762;SDS011;6445;52.490;13.378;2023-08-06T11:07:39;10.45;;;9.35;;
12762;SDS011;6445;52.490;13.378;2023-08-06T11:10:05;11.02;;;9.95;;
12762;SDS011;6445;52.490;13.378;2023-08-06T11:12:32;11.88;;;10.68;;
12762;SDS011;6445;52.490;13.378;2023-08-06T11:14:58;12.00;;;10.80;;
12762;SDS011;6445;52.490;13.378;2023-08-06T11:17:23;11.35;;;10.25;;
12762;SDS011;6445;52.490;13.378;2023-08-06T11:19:49;11.25;;;10.05;;
12762;SDS011;6445;52.490;13.378;2023-08-06T11:22:15;10.82;;;9.73;;
12762;SDS011;6445;52.490;13.378;2023-08-06T11:24:41;11.95;;;10.82;;
12762;SDS011;6445;52.490;13.378;2023-08-06T11:27:13;10.57;;;9.52;;
12762;SDS011;6445;52.490;13.378;2023-08-06T11:29:39;9.98;;;8.85;;
12762;SDS011;6445;52.490;13.378;2023-08-06T11:32:05;10.60;;;9.55;;
12762;SDS011;6445;52.490;13.378;2023-08-06T11:34:30;11.15;;;10.05;;
12762;SDS011;6445;52.490;13.378;2023-08-06T11:36:56;11.43;;;10.32;;
12762;SDS011;6445;52.490;13.378;2023-08-06T11:39:22;13.07;;;11.68;;
12762;SDS011;6445;52.490;13.378;2023-08-06T11:41:47;13.63;;;12.23;;
12762;SDS011;6445;52.490;13.378;2023-08-06T11:44:13;13.85;;;12.52;;
12762;SDS011;6445;52.490;13.378;2023-08-06T11:46:54;13.55;;;12.07;;
12762;SDS011;6445;52.490;13.378;2023-08-06T11:52:20;13.68;;;12.02;;
12762;SDS011;6445;52.490;13.378;2023-08-06T11:57:36;12.88;;;11.63;;
12762;SDS011;6445;52.490;13.378;2023-08-06T12:02:41;11.65;;;10.45;;
12762;SDS011;6445;52.490;13.378;2023-08-06T12:05:11;10.80;;;9.70;;
12762;SDS011;6445;52.490;13.378;2023-08-06T12:07:44;11.57;;;10.38;;
12762;SDS011;6445;52.490;13.378;2023-08-06T12:10:11;12.95;;;11.18;;
12762;SDS011;6445;52.490;13.378;2023-08-06T12:12:37;12.23;;;10.95;;
12762;SDS011;6445;52.490;13.378;2023-08-06T12:15:03;12.27;;;10.95;;
12762;SDS011;6445;52.490;13.378;2023-08-06T12:17:31;12.65;;;11.32;;
12762;SDS011;6445;52.490;13.378;2023-08-06T12:19:56;13.95;;;12.48;;
12762;SDS011;6445;52.490;13.378;2023-08-06T12:22:21;14.13;;;12.60;;
12762;SDS011;6445;52.490;13.378;2023-08-06T12:24:47;13.88;;;12.55;;
12762;SDS011;6445;52.490;13.378;2023-08-06T12:27:12;12.75;;;11.50;;
12762;SDS011;6445;52.490;13.378;2023-08-06T12:29:45;12.00;;;10.80;;
12762;SDS011;6445;52.490;13.378;2023-08-06T12:32:13;12.27;;;11.05;;
12762;SDS011;6445;52.490;13.378;2023-08-06T12:34:40;13.70;;;12.20;;
12762;SDS011;6445;52.490;13.378;2023-08-06T12:37:06;12.55;;;11.32;;
12762;SDS011;6445;52.490;13.378;2023-08-06T12:39:32;13.50;;;12.07;;
12762;SDS011;6445;52.490;13.378;2023-08-06T12:41:59;12.98;;;11.68;;
12762;SDS011;6445;52.490;13.378;2023-08-06T12:44:24;12.48;;;11.25;;
12762;SDS011;6445;52.490;13.378;2023-08-06T12:46:50;14.52;;;12.27;;
12762;SDS011;6445;52.490;13.378;2023-08-06T12:49:16;12.98;;;11.48;;
12762;SDS011;6445;52.490;13.378;2023-08-06T12:51:42;10.85;;;9.68;;
12762;SDS011;6445;52.490;13.378;2023-08-06T12:54:08;10.07;;;8.98;;
12762;SDS011;6445;52.490;13.378;2023-08-06T12:56:33;12.15;;;10.85;;
12762;SDS011;6445;52.490;13.378;2023-08-06T12:58:59;11.40;;;10.30;;
12762;SDS011;6445;52.490;13.378;2023-08-06T13:01:24;12.85;;;10.95;;
12762;SDS011;6445;52.490;13.378;2023-08-06T13:03:50;14.90;;;11.52;;
12762;SDS011;6445;52.490;13.378;2023-08-06T13:06:15;12.90;;;11.50;;
12762;SDS011;6445;52.490;13.378;2023-08-06T13:08:40;13.52;;;11.30;;
12762;SDS011;6445;52.490;13.378;2023-08-06T13:11:05;13.45;;;11.73;;
12762;SDS011;6445;52.490;13.378;2023-08-06T13:13:30;13.98;;;12.00;;
12762;SDS011;6445;52.490;13.378;2023-08-06T13:15:56;15.30;;;12.43;;
12762;SDS011;6445;52.490;13.378;2023-08-06T13:18:21;16.30;;;12.35;;
12762;SDS011;6445;52.490;13.378;2023-08-06T13:20:46;14.75;;;12.75;;
12762;SDS011;6445;52.490;13.378;2023-08-06T13:23:14;16.00;;;12.65;;
12762;SDS011;6445;52.490;13.378;2023-08-06T13:25:41;13.40;;;11.98;;
12762;SDS011;6445;52.490;13.378;2023-08-06T13:28:06;14.82;;;11.40;;
12762;SDS011;6445;52.490;13.378;2023-08-06T13:30:32;11.02;;;9.90;;
12762;SDS011;6445;52.490;13.378;2023-08-06T13:32:57;12.23;;;10.50;;
12762;SDS011;6445;52.490;13.378;2023-08-06T13:35:23;11.27;;;10.07;;
12762;SDS011;6445;52.490;13.378;2023-08-06T13:37:48;11.48;;;9.88;;
12762;SDS011;6445;52.490;13.378;2023-08-06T13:40:14;12.45;;;10.43;;
12762;SDS011;6445;52.490;13.378;2023-08-06T13:42:39;11.70;;;10.50;;
12762;SDS011;6445;52.490;13.378;2023-08-06T13:45:05;12.20;;;10.32;;
12762;SDS011;6445;52.490;13.378;2023-08-06T13:47:31;11.63;;;10.43;;
12762;SDS011;6445;52.490;13.378;2023-08-06T13:49:56;13.38;;;10.88;;
12762;SDS011;6445;52.490;13.378;2023-08-06T13:52:22;14.27;;;11.05;;
12762;SDS011;6445;52.490;13.378;2023-08-06T13:54:47;13.10;;;10.80;;
12762;SDS011;6445;52.490;13.378;2023-08-06T13:57:12;13.27;;;11.88;;
12762;SDS011;6445;52.490;13.378;2023-08-06T13:59:38;12.35;;;11.05;;
12762;SDS011;6445;52.490;13.378;2023-08-06T14:02:03;13.55;;;11.68;;
12762;SDS011;6445;52.490;13.378;2023-08-06T14:04:28;15.30;;;12.40;;
12762;SDS011;6445;52.490;13.378;2023-08-06T14:06:53;13.98;;;12.23;;
12762;SDS011;6445;52.490;13.378;2023-08-06T14:09:19;18.83;;;14.00;;
12762;SDS011;6445;52.490;13.378;2023-08-06T14:11:44;14.90;;;12.77;;
12762;SDS011;6445;52.490;13.378;2023-08-06T14:14:10;14.55;;;13.05;;
12762;SDS011;6445;52.490;13.378;2023-08-06T14:16:36;16.63;;;14.15;;
12762;SDS011;6445;52.490;13.378;2023-08-06T14:19:01;16.45;;;13.15;;
12762;SDS011;6445;52.490;13.378;2023-08-06T14:21:26;16.55;;;13.40;;
12762;SDS011;6445;52.490;13.378;2023-08-06T14:23:51;17.50;;;12.95;;
12762;SDS011;6445;52.490;13.378;2023-08-06T14:26:17;15.05;;;12.30;;
12762;SDS011;6445;52.490;13.378;2023-08-06T14:28:42;16.92;;;13.95;;
12762;SDS011;6445;52.490;13.378;2023-08-06T14:31:07;11.50;;;10.02;;
12762;SDS011;6445;52.490;13.378;2023-08-06T14:33:32;12.13;;;10.75;;
12762;SDS011;6445;52.490;13.378;2023-08-06T14:35:58;12.10;;;10.30;;